createdAt,value
2019-03-06T00:02:54.067Z,11.28
2019-03-06T00:07:56.081Z,11.68
2019-03-06T00:12:58.333Z,11.78
2019-03-06T00:18:00.767Z,11.65
2019-03-06T00:23:02.785Z,11.35
2019-03-06T00:28:05.383Z,11.38
2019-03-06T00:33:07.599Z,12.03
2019-03-06T00:38:09.597Z,11.48
2019-03-06T00:43:12.393Z,11.70
2019-03-06T00:48:14.417Z,11.90
2019-03-06T00:53:17.653Z,10.82
2019-03-06T00:58:19.930Z,10.45
2019-03-06T01:03:22.313Z,11.95
2019-03-06T01:08:24.470Z,10.50
2019-03-06T01:13:26.586Z,10.45
2019-03-06T01:18:28.609Z,11.53
2019-03-06T01:23:30.980Z,12.07
2019-03-06T01:28:33.321Z,10.00
2019-03-06T01:33:46.873Z,10.63
2019-03-06T01:39:20.227Z,11.55
2019-03-06T01:44:26.184Z,10.43
2019-03-06T01:49:28.204Z,12.03
2019-03-06T01:54:30.245Z,11.25
2019-03-06T01:59:32.319Z,11.70
2019-03-06T02:04:34.423Z,11.60
2019-03-06T02:09:36.513Z,11.18
2019-03-06T02:14:38.652Z,10.68
2019-03-06T02:19:40.750Z,10.05
2019-03-06T02:24:42.812Z,9.78
2019-03-06T02:29:44.838Z,9.48
2019-03-06T02:34:47.085Z,8.88
2019-03-06T02:39:49.200Z,9.20
2019-03-06T02:44:51.320Z,8.90
2019-03-06T02:49:53.398Z,8.40
2019-03-06T02:54:55.570Z,8.98
2019-03-06T03:00:26.239Z,9.45
2019-03-06T03:05:39.632Z,9.95
2019-03-06T03:10:41.661Z,9.85
2019-03-06T03:15:43.691Z,9.58
2019-03-06T03:20:46.136Z,8.68
2019-03-06T03:25:48.262Z,9.05
2019-03-06T03:30:50.356Z,9.43
2019-03-06T03:35:52.446Z,8.95
2019-03-06T03:40:54.467Z,8.70
2019-03-06T03:45:56.467Z,9.58
2019-03-06T03:50:58.568Z,9.23
2019-03-06T03:56:00.647Z,9.15
2019-03-06T04:01:02.914Z,9.70
2019-03-06T04:06:04.988Z,8.55
2019-03-06T04:11:07.458Z,8.33
2019-03-06T04:16:09.499Z,8.80
2019-03-06T04:21:11.520Z,9.05
2019-03-06T04:26:13.598Z,9.30
2019-03-06T04:31:15.637Z,9.90
2019-03-06T04:36:17.666Z,9.58
2019-03-06T04:41:19.667Z,9.43
2019-03-06T04:46:21.701Z,9.50
2019-03-06T04:51:24.110Z,9.20
2019-03-06T04:56:26.314Z,10.18
2019-03-06T05:01:28.417Z,8.93
2019-03-06T05:06:30.591Z,10.35
2019-03-06T05:11:32.631Z,9.88
2019-03-06T05:16:58.570Z,9.95
2019-03-06T05:22:00.640Z,10.20
2019-03-06T05:27:02.713Z,11.48
2019-03-06T05:32:30.511Z,10.63
2019-03-06T05:38:23.531Z,11.28
2019-03-06T05:43:25.621Z,11.28
2019-03-06T05:48:27.948Z,12.18
2019-03-06T05:53:29.997Z,11.05
2019-03-06T05:58:32.073Z,11.45
2019-03-06T06:03:34.161Z,10.93
2019-03-06T06:08:36.477Z,10.60
2019-03-06T06:13:38.587Z,10.95
2019-03-06T06:18:40.833Z,11.25
2019-03-06T06:23:49.471Z,10.63
2019-03-06T06:28:51.562Z,10.58
2019-03-06T06:33:53.594Z,10.85
2019-03-06T06:38:56.031Z,10.08
2019-03-06T06:43:58.107Z,10.68
2019-03-06T06:49:00.144Z,10.18
2019-03-06T06:54:10.657Z,9.90
2019-03-06T06:59:20.770Z,9.23
2019-03-06T07:05:04.871Z,9.95
2019-03-06T07:10:25.323Z,10.05
2019-03-06T07:15:42.663Z,10.53
2019-03-06T07:21:03.368Z,8.95
2019-03-06T07:26:30.906Z,9.53
2019-03-06T07:31:49.514Z,9.15
2019-03-06T07:36:58.776Z,8.40
2019-03-06T07:42:29.456Z,8.90
2019-03-06T07:47:57.137Z,8.23
2019-03-06T07:54:27.715Z,8.53
2019-03-06T07:59:29.721Z,7.12
2019-03-06T08:04:31.920Z,7.80
2019-03-06T08:09:34.060Z,7.83
2019-03-06T08:14:56.139Z,7.67
2019-03-06T08:20:16.688Z,7.08
2019-03-06T08:25:27.692Z,6.97
2019-03-06T08:30:31.967Z,6.10
2019-03-06T08:35:34.065Z,6.67
2019-03-06T08:40:36.134Z,6.45
2019-03-06T08:46:00.504Z,6.12
2019-03-06T08:51:08.411Z,5.28
2019-03-06T08:56:16.248Z,5.53
2019-03-06T09:02:00.078Z,4.50
2019-03-06T09:07:06.929Z,4.42
2019-03-06T09:12:26.663Z,3.87
2019-03-06T09:17:51.330Z,4.10
2019-03-06T09:23:03.004Z,3.70
2019-03-06T09:28:42.807Z,3.80
2019-03-06T09:34:09.612Z,3.08
2019-03-06T09:39:41.057Z,3.58
2019-03-06T09:45:05.712Z,4.10
2019-03-06T09:50:33.813Z,3.72
2019-03-06T09:56:01.450Z,3.95
2019-03-06T10:01:22.066Z,3.22
2019-03-06T10:06:53.126Z,3.62
2019-03-06T10:12:02.895Z,3.80
2019-03-06T10:17:14.565Z,3.62
2019-03-06T10:22:17.239Z,3.67
2019-03-06T10:27:19.273Z,4.53
2019-03-06T10:32:21.537Z,3.60
2019-03-06T10:37:23.614Z,3.80
2019-03-06T10:42:25.726Z,4.10
2019-03-06T10:47:27.818Z,2.85
2019-03-06T10:52:29.919Z,2.42
2019-03-06T10:57:31.988Z,2.90
2019-03-06T11:02:34.420Z,2.50
2019-03-06T11:07:36.718Z,2.85
2019-03-06T11:12:39.084Z,2.30
2019-03-06T11:17:41.155Z,2.33
2019-03-06T11:22:43.698Z,2.70
2019-03-06T11:27:46.056Z,2.30
2019-03-06T11:32:54.388Z,2.47
2019-03-06T11:37:52.701Z,1.90
2019-03-06T11:42:54.827Z,2.30
2019-03-06T11:47:57.140Z,1.70
2019-03-06T11:52:59.192Z,2.20
2019-03-06T11:58:01.396Z,1.95
2019-03-06T12:03:05.055Z,2.00
2019-03-06T12:08:10.035Z,1.40
2019-03-06T12:13:13.775Z,1.60
2019-03-06T12:18:16.896Z,1.47
2019-03-06T12:23:19.675Z,1.85
2019-03-06T12:28:21.803Z,1.60
2019-03-06T12:33:25.897Z,1.40
2019-03-06T12:38:27.992Z,1.40
2019-03-06T12:43:30.272Z,1.70
2019-03-06T12:48:32.765Z,1.62
2019-03-06T12:53:34.892Z,1.57
2019-03-06T12:58:37.838Z,1.30
2019-03-06T13:03:39.963Z,1.22
2019-03-06T13:08:49.936Z,1.47
2019-03-06T13:13:46.173Z,1.60
2019-03-06T13:18:48.262Z,1.50
2019-03-06T13:23:50.773Z,1.50
2019-03-06T13:28:57.406Z,1.50
2019-03-06T13:34:28.734Z,1.30
2019-03-06T13:39:30.988Z,1.72
2019-03-06T13:44:33.054Z,1.62
2019-03-06T13:49:35.179Z,1.40
2019-03-06T13:54:37.399Z,2.30
2019-03-06T13:59:39.517Z,1.98
2019-03-06T14:04:41.604Z,1.52
2019-03-06T14:09:44.075Z,1.40
2019-03-06T14:14:46.076Z,1.30
2019-03-06T14:19:48.173Z,1.47
2019-03-06T14:24:50.245Z,1.30
2019-03-06T14:29:52.673Z,1.37
2019-03-06T14:34:55.754Z,1.20
2019-03-06T14:39:59.394Z,2.45
2019-03-06T14:45:01.840Z,1.40
2019-03-06T14:50:04.310Z,1.50
2019-03-06T14:55:08.696Z,1.70
2019-03-06T15:00:12.712Z,1.42
2019-03-06T15:05:15.536Z,1.40
2019-03-06T15:10:17.770Z,1.47
2019-03-06T15:15:19.980Z,1.57
2019-03-06T15:20:22.489Z,1.20
2019-03-06T15:25:24.656Z,1.50
2019-03-06T15:30:26.795Z,1.32
2019-03-06T15:35:29.238Z,2.05
2019-03-06T15:40:32.208Z,1.30
2019-03-06T15:45:34.343Z,1.42
2019-03-06T15:50:36.449Z,1.35
2019-03-06T15:55:38.974Z,1.30
2019-03-06T16:00:46.137Z,1.30
2019-03-06T16:05:45.943Z,1.50
2019-03-06T16:10:48.043Z,1.25
2019-03-06T16:15:50.283Z,1.32
2019-03-06T16:20:52.494Z,1.40
2019-03-06T16:25:54.985Z,1.17
2019-03-06T16:30:57.104Z,1.90
2019-03-06T16:35:59.447Z,1.20
2019-03-06T16:41:01.532Z,1.20
2019-03-06T16:46:03.854Z,1.67
2019-03-06T16:51:08.114Z,1.60
2019-03-06T16:56:10.848Z,1.92
2019-03-06T17:01:13.267Z,1.50
2019-03-06T17:06:15.342Z,1.50
2019-03-06T17:11:17.551Z,1.70
2019-03-06T17:16:19.962Z,1.75
2019-03-06T17:21:22.055Z,1.72
2019-03-06T17:26:25.089Z,1.80
2019-03-06T17:31:27.530Z,1.90
2019-03-06T17:36:29.966Z,1.62
2019-03-06T17:41:32.113Z,1.70
2019-03-06T17:46:34.296Z,1.90
2019-03-06T17:51:36.366Z,1.90
2019-03-06T17:56:38.411Z,1.90
2019-03-06T18:01:40.541Z,2.05
2019-03-06T18:06:42.771Z,2.17
2019-03-06T18:11:44.955Z,1.60
2019-03-06T18:16:47.188Z,1.85
2019-03-06T18:21:49.256Z,1.80
2019-03-06T18:26:51.304Z,2.20
2019-03-06T18:31:53.729Z,2.52
2019-03-06T18:36:55.845Z,2.00
2019-03-06T18:41:58.134Z,3.00
2019-03-06T18:47:00.455Z,2.42
2019-03-06T18:52:02.743Z,3.02
2019-03-06T18:57:05.154Z,3.10
2019-03-06T19:02:07.325Z,2.85
2019-03-06T19:07:09.629Z,2.92
2019-03-06T19:12:11.772Z,2.87
2019-03-06T19:17:13.878Z,3.25
2019-03-06T19:22:16.045Z,3.22
2019-03-06T19:27:18.219Z,3.10
2019-03-06T19:32:20.329Z,3.30
2019-03-06T19:37:22.527Z,3.55
2019-03-06T19:42:24.620Z,3.30
2019-03-06T19:47:27.053Z,3.52
2019-03-06T19:52:29.125Z,3.37
2019-03-06T19:57:50.484Z,3.35
2019-03-06T20:02:52.655Z,3.60
2019-03-06T20:07:54.740Z,3.22
2019-03-06T20:12:57.084Z,3.67
2019-03-06T20:18:03.821Z,4.00
2019-03-06T20:23:06.317Z,3.70
2019-03-06T20:28:08.640Z,3.20
2019-03-06T20:33:11.141Z,3.05
2019-03-06T20:38:13.453Z,2.98
2019-03-06T20:43:15.612Z,3.42
2019-03-06T20:48:17.721Z,3.25
2019-03-06T20:53:19.938Z,3.30
2019-03-06T20:58:34.128Z,3.27
2019-03-06T21:03:36.277Z,3.10
2019-03-06T21:08:38.464Z,3.00
2019-03-06T21:13:40.950Z,2.98
2019-03-06T21:18:43.083Z,3.92
2019-03-06T21:23:45.255Z,3.35
2019-03-06T21:28:52.649Z,3.02
2019-03-06T21:33:54.960Z,3.95
2019-03-06T21:38:57.049Z,3.17
2019-03-06T21:43:59.200Z,3.85
2019-03-06T21:49:01.901Z,3.90
2019-03-06T21:54:04.083Z,3.52
2019-03-06T21:59:06.157Z,3.75
2019-03-06T22:04:08.250Z,4.25
2019-03-06T22:09:12.362Z,3.10
2019-03-06T22:14:14.487Z,3.12
2019-03-06T22:19:16.600Z,3.27
2019-03-06T22:24:18.727Z,3.30
2019-03-06T22:29:20.906Z,3.42
2019-03-06T22:34:23.087Z,2.62
2019-03-06T22:39:25.446Z,2.95
2019-03-06T22:44:27.599Z,3.00
2019-03-06T22:49:29.687Z,3.27
2019-03-06T22:54:31.802Z,3.22
2019-03-06T22:59:33.845Z,2.92
2019-03-06T23:04:36.016Z,2.80
2019-03-06T23:09:38.116Z,3.15
2019-03-06T23:14:40.359Z,3.20
2019-03-06T23:19:42.427Z,3.12
2019-03-06T23:24:44.485Z,2.87
2019-03-06T23:29:46.819Z,3.08
2019-03-06T23:34:48.859Z,3.05
2019-03-06T23:39:50.913Z,3.40
2019-03-06T23:44:53.181Z,3.45
2019-03-06T23:49:55.262Z,3.47
2019-03-06T23:54:57.370Z,3.58
2019-03-06T23:59:59.408Z,3.52
